sensor_id;sensor_type;location;lat;lon;timestamp;P1;durP1;ratioP1;P2;durP2;ratioP2
20417;SDS011;10368;51.436;6.774;2023-10-13T00:01:03;15.10;;;12.75;;
20417;SDS011;10368;51.436;6.774;2023-10-13T00:03:33;13.73;;;11.50;;
20417;SDS011;10368;51.436;6.774;2023-10-13T00:06:03;16.48;;;12.20;;
20417;SDS011;10368;51.436;6.774;2023-10-13T00:08:32;13.75;;;11.48;;
20417;SDS011;10368;51.436;6.774;2023-10-13T00:10:59;20.27;;;11.77;;
20417;SDS011;10368;51.436;6.774;2023-10-13T00:13:27;17.70;;;11.68;;
20417;SDS011;10368;51.436;6.774;2023-10-13T00:15:54;13.30;;;10.93;;
20417;SDS011;10368;51.436;6.774;2023-10-13T00:18:28;11.57;;;10.20;;
20417;SDS011;10368;51.436;6.774;2023-10-13T00:21:08;17.63;;;10.80;;
20417;SDS011;10368;51.436;6.774;2023-10-13T00:23:43;15.55;;;11.38;;
20417;SDS011;10368;51.436;6.774;2023-10-13T00:26:26;17.35;;;12.02;;
20417;SDS011;10368;51.436;6.774;2023-10-13T00:28:55;12.52;;;11.23;;
20417;SDS011;10368;51.436;6.774;2023-10-13T00:31:41;16.45;;;11.32;;
20417;SDS011;10368;51.436;6.774;2023-10-13T00:34:10;20.50;;;11.98;;
20417;SDS011;10368;51.436;6.774;2023-10-13T00:36:46;14.30;;;11.05;;
20417;SDS011;10368;51.436;6.774;2023-10-13T00:39:34;18.40;;;11.80;;
20417;SDS011;10368;51.436;6.774;2023-10-13T00:42:11;13.70;;;12.27;;
20417;SDS011;10368;51.436;6.774;2023-10-13T00:44:46;15.65;;;10.77;;
20417;SDS011;10368;51.436;6.774;2023-10-13T00:47:20;14.65;;;10.45;;
20417;SDS011;10368;51.436;6.774;2023-10-13T00:50:04;15.10;;;9.88;;
20417;SDS011;10368;51.436;6.774;2023-10-13T00:52:31;12.13;;;10.57;;
20417;SDS011;10368;51.436;6.774;2023-10-13T00:55:01;12.82;;;10.40;;
20417;SDS011;10368;51.436;6.774;2023-10-13T00:57:30;18.35;;;11.43;;
20417;SDS011;10368;51.436;6.774;2023-10-13T00:59:58;12.18;;;10.48;;
20417;SDS011;10368;51.436;6.774;2023-10-13T01:02:38;13.98;;;9.80;;
20417;SDS011;10368;51.436;6.774;2023-10-13T01:05:07;13.13;;;10.75;;
20417;SDS011;10368;51.436;6.774;2023-10-13T01:07:46;15.85;;;11.95;;
20417;SDS011;10368;51.436;6.774;2023-10-13T01:10:20;14.30;;;11.02;;
20417;SDS011;10368;51.436;6.774;2023-10-13T01:12:54;14.05;;;11.43;;
20417;SDS011;10368;51.436;6.774;2023-10-13T01:15:21;17.05;;;12.25;;
20417;SDS011;10368;51.436;6.774;2023-10-13T01:17:49;12.73;;;10.73;;
20417;SDS011;10368;51.436;6.774;2023-10-13T01:20:16;15.70;;;10.63;;
20417;SDS011;10368;51.436;6.774;2023-10-13T01:22:51;18.10;;;12.02;;
20417;SDS011;10368;51.436;6.774;2023-10-13T01:25:25;13.55;;;11.20;;
20417;SDS011;10368;51.436;6.774;2023-10-13T01:27:53;14.75;;;11.07;;
20417;SDS011;10368;51.436;6.774;2023-10-13T01:30:21;19.67;;;9.90;;
20417;SDS011;10368;51.436;6.774;2023-10-13T01:32:52;18.15;;;11.70;;
20417;SDS011;10368;51.436;6.774;2023-10-13T01:35:21;11.90;;;10.05;;
20417;SDS011;10368;51.436;6.774;2023-10-13T01:38:03;18.13;;;12.00;;
20417;SDS011;10368;51.436;6.774;2023-10-13T01:40:31;15.60;;;12.18;;
20417;SDS011;10368;51.436;6.774;2023-10-13T01:43:01;14.60;;;11.10;;
20417;SDS011;10368;51.436;6.774;2023-10-13T01:45:31;17.13;;;12.45;;
20417;SDS011;10368;51.436;6.774;2023-10-13T01:47:58;12.45;;;11.00;;
20417;SDS011;10368;51.436;6.774;2023-10-13T01:50:28;12.02;;;10.32;;
20417;SDS011;10368;51.436;6.774;2023-10-13T01:52:56;15.40;;;11.55;;
20417;SDS011;10368;51.436;6.774;2023-10-13T01:55:41;16.67;;;11.82;;
20417;SDS011;10368;51.436;6.774;2023-10-13T01:58:12;13.45;;;11.38;;
20417;SDS011;10368;51.436;6.774;2023-10-13T02:00:42;16.88;;;11.45;;
20417;SDS011;10368;51.436;6.774;2023-10-13T02:03:11;15.80;;;12.95;;
20417;SDS011;10368;51.436;6.774;2023-10-13T02:05:42;16.23;;;11.95;;
20417;SDS011;10368;51.436;6.774;2023-10-13T02:08:14;16.63;;;12.10;;
20417;SDS011;10368;51.436;6.774;2023-10-13T02:10:45;13.73;;;11.05;;
20417;SDS011;10368;51.436;6.774;2023-10-13T02:13:15;19.02;;;12.77;;
20417;SDS011;10368;51.436;6.774;2023-10-13T02:15:44;13.23;;;11.50;;
20417;SDS011;10368;51.436;6.774;2023-10-13T02:18:13;14.40;;;12.57;;
20417;SDS011;10368;51.436;6.774;2023-10-13T02:20:40;14.65;;;12.23;;
20417;SDS011;10368;51.436;6.774;2023-10-13T02:23:12;15.18;;;11.07;;
20417;SDS011;10368;51.436;6.774;2023-10-13T02:25:40;11.98;;;10.80;;
20417;SDS011;10368;51.436;6.774;2023-10-13T02:28:12;15.25;;;11.75;;
20417;SDS011;10368;51.436;6.774;2023-10-13T02:30:41;13.60;;;11.82;;
20417;SDS011;10368;51.436;6.774;2023-10-13T02:33:12;12.40;;;10.68;;
20417;SDS011;10368;51.436;6.774;2023-10-13T02:35:40;12.57;;;11.00;;
20417;SDS011;10368;51.436;6.774;2023-10-13T02:38:08;16.73;;;12.70;;
20417;SDS011;10368;51.436;6.774;2023-10-13T02:40:38;16.30;;;11.60;;
20417;SDS011;10368;51.436;6.774;2023-10-13T02:43:06;14.25;;;10.98;;
20417;SDS011;10368;51.436;6.774;2023-10-13T02:45:33;13.38;;;11.65;;
20417;SDS011;10368;51.436;6.774;2023-10-13T02:48:04;16.30;;;11.73;;
20417;SDS011;10368;51.436;6.774;2023-10-13T02:50:44;15.68;;;11.27;;
20417;SDS011;10368;51.436;6.774;2023-10-13T02:53:12;11.93;;;9.65;;
20417;SDS011;10368;51.436;6.774;2023-10-13T02:55:52;12.98;;;11.68;;
20417;SDS011;10368;51.436;6.774;2023-10-13T02:58:19;13.50;;;11.13;;
20417;SDS011;10368;51.436;6.774;2023-10-13T03:00:47;16.30;;;12.18;;
20417;SDS011;10368;51.436;6.774;2023-10-13T03:03:15;15.48;;;11.73;;
20417;SDS011;10368;51.436;6.774;2023-10-13T03:05:45;12.32;;;10.98;;
20417;SDS011;10368;51.436;6.774;2023-10-13T03:08:12;13.63;;;11.18;;
20417;SDS011;10368;51.436;6.774;2023-10-13T03:10:51;13.10;;;11.60;;
20417;SDS011;10368;51.436;6.774;2023-10-13T03:13:20;15.57;;;11.05;;
20417;SDS011;10368;51.436;6.774;2023-10-13T03:15:48;12.60;;;11.13;;
20417;SDS011;10368;51.436;6.774;2023-10-13T03:18:15;14.98;;;11.70;;
20417;SDS011;10368;51.436;6.774;2023-10-13T03:20:45;15.32;;;12.57;;
20417;SDS011;10368;51.436;6.774;2023-10-13T03:23:16;14.55;;;11.68;;
20417;SDS011;10368;51.436;6.774;2023-10-13T03:25:44;12.65;;;11.18;;
20417;SDS011;10368;51.436;6.774;2023-10-13T03:28:16;22.75;;;13.35;;
20417;SDS011;10368;51.436;6.774;2023-10-13T03:30:50;19.38;;;13.75;;
20417;SDS011;10368;51.436;6.774;2023-10-13T03:33:19;14.20;;;12.80;;
20417;SDS011;10368;51.436;6.774;2023-10-13T03:35:52;16.15;;;11.57;;
20417;SDS011;10368;51.436;6.774;2023-10-13T03:38:20;16.38;;;12.15;;
20417;SDS011;10368;51.436;6.774;2023-10-13T03:40:53;15.95;;;11.73;;
20417;SDS011;10368;51.436;6.774;2023-10-13T03:43:46;19.13;;;12.85;;
20417;SDS011;10368;51.436;6.774;2023-10-13T03:46:18;17.83;;;12.65;;
20417;SDS011;10368;51.436;6.774;2023-10-13T03:48:49;17.45;;;13.63;;
20417;SDS011;10368;51.436;6.774;2023-10-13T03:51:21;20.40;;;14.65;;
20417;SDS011;10368;51.436;6.774;2023-10-13T03:53:56;17.80;;;13.50;;
20417;SDS011;10368;51.436;6.774;2023-10-13T03:56:25;15.93;;;13.55;;
20417;SDS011;10368;51.436;6.774;2023-10-13T03:58:57;15.98;;;13.65;;
20417;SDS011;10368;51.436;6.774;2023-10-13T04:01:32;17.25;;;13.48;;
20417;SDS011;10368;51.436;6.774;2023-10-13T04:04:14;16.98;;;12.93;;
20417;SDS011;10368;51.436;6.774;2023-10-13T04:06:42;16.40;;;13.68;;
20417;SDS011;10368;51.436;6.774;2023-10-13T04:09:15;27.05;;;16.95;;
20417;SDS011;10368;51.436;6.774;2023-10-13T04:11:59;18.27;;;13.52;;
20417;SDS011;10368;51.436;6.774;2023-10-13T04:14:30;15.75;;;13.10;;
20417;SDS011;10368;51.436;6.774;2023-10-13T04:17:17;19.45;;;13.73;;
20417;SDS011;10368;51.436;6.774;2023-10-13T04:19:54;20.73;;;13.43;;
20417;SDS011;10368;51.436;6.774;2023-10-13T04:22:31;15.68;;;13.38;;
20417;SDS011;10368;51.436;6.774;2023-10-13T04:28:13;15.15;;;12.82;;
20417;SDS011;10368;51.436;6.774;2023-10-13T04:30:47;14.88;;;13.35;;
20417;SDS011;10368;51.436;6.774;2023-10-13T04:33:18;14.38;;;12.45;;
20417;SDS011;10368;51.436;6.774;2023-10-13T04:36:04;26.50;;;14.55;;
20417;SDS011;10368;51.436;6.774;2023-10-13T04:41:27;20.15;;;14.00;;
20417;SDS011;10368;51.436;6.774;2023-10-13T04:44:10;14.63;;;12.93;;
20417;SDS011;10368;51.436;6.774;2023-10-13T04:46:51;17.77;;;12.98;;
20417;SDS011;10368;51.436;6.774;2023-10-13T04:49:32;19.23;;;13.68;;
20417;SDS011;10368;51.436;6.774;2023-10-13T04:52:06;18.65;;;14.98;;
20417;SDS011;10368;51.436;6.774;2023-10-13T04:54:38;17.48;;;13.48;;
20417;SDS011;10368;51.436;6.774;2023-10-13T04:57:12;18.33;;;14.57;;
20417;SDS011;10368;51.436;6.774;2023-10-13T04:59:49;29.13;;;15.43;;
20417;SDS011;10368;51.436;6.774;2023-10-13T05:02:35;22.55;;;13.95;;
20417;SDS011;10368;51.436;6.774;2023-10-13T05:07:49;19.38;;;14.20;;
20417;SDS011;10368;51.436;6.774;2023-10-13T05:10:35;18.17;;;13.88;;
20417;SDS011;10368;51.436;6.774;2023-10-13T05:13:21;20.80;;;15.20;;
20417;SDS011;10368;51.436;6.774;2023-10-13T05:16:08;19.02;;;14.68;;
20417;SDS011;10368;51.436;6.774;2023-10-13T05:18:54;20.65;;;13.10;;
20417;SDS011;10368;51.436;6.774;2023-10-13T05:21:40;20.55;;;15.38;;
20417;SDS011;10368;51.436;6.774;2023-10-13T05:24:26;23.45;;;16.73;;
20417;SDS011;10368;51.436;6.774;2023-10-13T05:27:11;20.67;;;16.05;;
20417;SDS011;10368;51.436;6.774;2023-10-13T05:29:58;23.38;;;16.02;;
20417;SDS011;10368;51.436;6.774;2023-10-13T05:32:44;22.42;;;16.30;;
20417;SDS011;10368;51.436;6.774;2023-10-13T05:35:30;21.33;;;15.82;;
20417;SDS011;10368;51.436;6.774;2023-10-13T05:38:17;24.90;;;16.05;;
20417;SDS011;10368;51.436;6.774;2023-10-13T05:41:04;22.50;;;15.50;;
20417;SDS011;10368;51.436;6.774;2023-10-13T05:43:51;28.45;;;16.95;;
20417;SDS011;10368;51.436;6.774;2023-10-13T05:46:37;24.05;;;16.33;;
20417;SDS011;10368;51.436;6.774;2023-10-13T05:49:05;28.17;;;17.02;;
20417;SDS011;10368;51.436;6.774;2023-10-13T05:51:55;26.60;;;16.45;;
20417;SDS011;10368;51.436;6.774;2023-10-13T05:54:34;20.05;;;15.63;;
20417;SDS011;10368;51.436;6.774;2023-10-13T05:57:20;22.25;;;15.50;;
20417;SDS011;10368;51.436;6.774;2023-10-13T06:00:06;19.58;;;14.68;;
20417;SDS011;10368;51.436;6.774;2023-10-13T06:02:52;24.17;;;15.57;;
20417;SDS011;10368;51.436;6.774;2023-10-13T06:05:39;19.33;;;13.80;;
20417;SDS011;10368;51.436;6.774;2023-10-13T06:08:25;22.50;;;13.57;;
20417;SDS011;10368;51.436;6.774;2023-10-13T06:11:11;23.50;;;13.82;;
20417;SDS011;10368;51.436;6.774;2023-10-13T06:14:10;18.88;;;12.80;;
20417;SDS011;10368;51.436;6.774;2023-10-13T06:16:56;20.88;;;12.77;;
20417;SDS011;10368;51.436;6.774;2023-10-13T06:19:43;16.05;;;12.05;;
20417;SDS011;10368;51.436;6.774;2023-10-13T06:22:28;16.70;;;11.20;;
20417;SDS011;10368;51.436;6.774;2023-10-13T06:25:14;20.30;;;12.10;;
20417;SDS011;10368;51.436;6.774;2023-10-13T06:28:02;17.85;;;10.43;;
20417;SDS011;10368;51.436;6.774;2023-10-13T06:30:57;18.63;;;10.48;;
20417;SDS011;10368;51.436;6.774;2023-10-13T06:33:25;12.88;;;9.23;;
20417;SDS011;10368;51.436;6.774;2023-10-13T06:35:56;18.17;;;10.55;;
20417;SDS011;10368;51.436;6.774;2023-10-13T06:38:23;11.05;;;8.77;;
20417;SDS011;10368;51.436;6.774;2023-10-13T06:40:53;13.40;;;9.55;;
20417;SDS011;10368;51.436;6.774;2023-10-13T06:43:22;15.63;;;8.73;;
20417;SDS011;10368;51.436;6.774;2023-10-13T06:45:53;15.70;;;7.68;;
20417;SDS011;10368;51.436;6.774;2023-10-13T06:48:27;11.77;;;7.70;;
20417;SDS011;10368;51.436;6.774;2023-10-13T06:51:01;14.00;;;8.65;;
20417;SDS011;10368;51.436;6.774;2023-10-13T06:53:44;13.13;;;8.00;;
20417;SDS011;10368;51.436;6.774;2023-10-13T06:56:15;10.63;;;7.40;;
20417;SDS011;10368;51.436;6.774;2023-10-13T06:59:02;11.45;;;7.32;;
20417;SDS011;10368;51.436;6.774;2023-10-13T07:01:31;15.30;;;7.97;;
20417;SDS011;10368;51.436;6.774;2023-10-13T07:04:09;13.38;;;9.07;;
20417;SDS011;10368;51.436;6.774;2023-10-13T07:06:41;14.48;;;7.90;;
20417;SDS011;10368;51.436;6.774;2023-10-13T07:09:15;10.98;;;7.68;;
20417;SDS011;10368;51.436;6.774;2023-10-13T07:12:03;17.65;;;9.52;;
20417;SDS011;10368;51.436;6.774;2023-10-13T07:14:33;18.92;;;9.40;;
20417;SDS011;10368;51.436;6.774;2023-10-13T07:17:04;12.18;;;8.32;;
20417;SDS011;10368;51.436;6.774;2023-10-13T07:19:31;12.68;;;9.02;;
20417;SDS011;10368;51.436;6.774;2023-10-13T07:22:02;15.43;;;9.10;;
20417;SDS011;10368;51.436;6.774;2023-10-13T07:24:46;20.10;;;9.30;;
20417;SDS011;10368;51.436;6.774;2023-10-13T07:27:16;13.77;;;8.57;;
20417;SDS011;10368;51.436;6.774;2023-10-13T07:29:51;11.52;;;8.70;;
20417;SDS011;10368;51.436;6.774;2023-10-13T07:32:23;13.32;;;8.90;;
20417;SDS011;10368;51.436;6.774;2023-10-13T07:34:53;16.63;;;9.98;;
20417;SDS011;10368;51.436;6.774;2023-10-13T07:37:23;15.82;;;10.88;;
20417;SDS011;10368;51.436;6.774;2023-10-13T07:39:55;14.10;;;10.00;;
20417;SDS011;10368;51.436;6.774;2023-10-13T07:42:26;16.02;;;10.52;;
20417;SDS011;10368;51.436;6.774;2023-10-13T07:45:06;18.75;;;11.27;;
20417;SDS011;10368;51.436;6.774;2023-10-13T07:47:34;14.88;;;10.85;;
20417;SDS011;10368;51.436;6.774;2023-10-13T07:50:05;19.35;;;11.15;;
20417;SDS011;10368;51.436;6.774;2023-10-13T07:52:33;15.02;;;10.50;;
20417;SDS011;10368;51.436;6.774;2023-10-13T07:55:03;13.43;;;9.68;;
20417;SDS011;10368;51.436;6.774;2023-10-13T07:57:48;16.58;;;10.98;;
20417;SDS011;10368;51.436;6.774;2023-10-13T08:00:22;12.27;;;8.90;;
20417;SDS011;10368;51.436;6.774;2023-10-13T08:02:56;13.52;;;10.25;;
20417;SDS011;10368;51.436;6.774;2023-10-13T08:05:35;13.80;;;9.43;;
20417;SDS011;10368;51.436;6.774;2023-10-13T08:08:22;10.23;;;8.75;;
20417;SDS011;10368;51.436;6.774;2023-10-13T08:10:52;17.17;;;9.77;;
20417;SDS011;10368;51.436;6.774;2023-10-13T08:13:27;23.95;;;10.75;;
20417;SDS011;10368;51.436;6.774;2023-10-13T08:15:54;17.48;;;11.57;;
20417;SDS011;10368;51.436;6.774;2023-10-13T08:18:27;15.48;;;9.88;;
20417;SDS011;10368;51.436;6.774;2023-10-13T08:21:06;21.50;;;9.88;;
20417;SDS011;10368;51.436;6.774;2023-10-13T08:23:42;57.25;;;14.45;;
20417;SDS011;10368;51.436;6.774;2023-10-13T08:26:22;12.27;;;8.93;;
20417;SDS011;10368;51.436;6.774;2023-10-13T08:29:18;13.23;;;9.38;;
20417;SDS011;10368;51.436;6.774;2023-10-13T08:31:50;18.73;;;7.85;;
20417;SDS011;10368;51.436;6.774;2023-10-13T08:34:36;11.07;;;8.45;;
20417;SDS011;10368;51.436;6.774;2023-10-13T08:37:10;44.67;;;11.85;;
20417;SDS011;10368;51.436;6.774;2023-10-13T08:39:58;11.73;;;7.72;;
20417;SDS011;10368;51.436;6.774;2023-10-13T08:42:48;10.50;;;8.70;;
20417;SDS011;10368;51.436;6.774;2023-10-13T08:45:36;13.57;;;7.38;;
20417;SDS011;10368;51.436;6.774;2023-10-13T08:48:04;12.93;;;6.93;;
20417;SDS011;10368;51.436;6.774;2023-10-13T08:53:19;9.13;;;7.80;;
20417;SDS011;10368;51.436;6.774;2023-10-13T08:56:12;32.53;;;9.13;;
20417;SDS011;10368;51.436;6.774;2023-10-13T09:01:24;13.73;;;7.45;;
20417;SDS011;10368;51.436;6.774;2023-10-13T09:04:19;9.70;;;7.47;;
20417;SDS011;10368;51.436;6.774;2023-10-13T09:07:01;11.13;;;6.25;;
20417;SDS011;10368;51.436;6.774;2023-10-13T09:12:28;13.63;;;7.20;;
20417;SDS011;10368;51.436;6.774;2023-10-13T09:15:00;12.02;;;6.75;;
20417;SDS011;10368;51.436;6.774;2023-10-13T09:17:41;14.38;;;6.68;;
20417;SDS011;10368;51.436;6.774;2023-10-13T09:20:14;18.85;;;7.25;;
20417;SDS011;10368;51.436;6.774;2023-10-13T09:22:51;11.23;;;7.05;;
20417;SDS011;10368;51.436;6.774;2023-10-13T09:25:28;16.08;;;6.32;;
20417;SDS011;10368;51.436;6.774;2023-10-13T09:28:11;15.25;;;7.10;;
20417;SDS011;10368;51.436;6.774;2023-10-13T09:33:19;12.60;;;7.82;;
20417;SDS011;10368;51.436;6.774;2023-10-13T09:35:54;10.98;;;6.30;;
20417;SDS011;10368;51.436;6.774;2023-10-13T09:38:29;8.68;;;6.32;;
20417;SDS011;10368;51.436;6.774;2023-10-13T09:40:57;14.25;;;6.78;;
20417;SDS011;10368;51.436;6.774;2023-10-13T09:43:28;12.55;;;6.53;;
20417;SDS011;10368;51.436;6.774;2023-10-13T09:46:00;16.67;;;5.95;;
20417;SDS011;10368;51.436;6.774;2023-10-13T09:48:44;22.17;;;6.68;;
20417;SDS011;10368;51.436;6.774;2023-10-13T09:51:16;23.60;;;7.70;;
20417;SDS011;10368;51.436;6.774;2023-10-13T09:56:49;19.48;;;6.47;;
20417;SDS011;10368;51.436;6.774;2023-10-13T09:59:22;14.13;;;7.13;;
20417;SDS011;10368;51.436;6.774;2023-10-13T10:01:51;13.60;;;6.32;;
20417;SDS011;10368;51.436;6.774;2023-10-13T10:04:35;14.60;;;7.75;;
20417;SDS011;10368;51.436;6.774;2023-10-13T10:07:27;12.18;;;6.93;;
20417;SDS011;10368;51.436;6.774;2023-10-13T10:09:55;8.95;;;6.53;;
20417;SDS011;10368;51.436;6.774;2023-10-13T10:12:32;11.45;;;6.70;;
20417;SDS011;10368;51.436;6.774;2023-10-13T10:17:42;14.05;;;6.75;;
20417;SDS011;10368;51.436;6.774;2023-10-13T10:20:10;19.25;;;7.75;;
20417;SDS011;10368;51.436;6.774;2023-10-13T10:22:41;9.68;;;5.72;;
20417;SDS011;10368;51.436;6.774;2023-10-13T10:25:15;11.10;;;6.07;;
20417;SDS011;10368;51.436;6.774;2023-10-13T10:27:58;10.82;;;5.93;;
20417;SDS011;10368;51.436;6.774;2023-10-13T10:30:26;10.73;;;6.30;;
20417;SDS011;10368;51.436;6.774;2023-10-13T10:32:54;13.52;;;6.45;;
20417;SDS011;10368;51.436;6.774;2023-10-13T10:35:34;9.55;;;7.00;;
20417;SDS011;10368;51.436;6.774;2023-10-13T10:38:18;15.35;;;6.97;;
20417;SDS011;10368;51.436;6.774;2023-10-13T10:40:58;10.02;;;7.18;;
20417;SDS011;10368;51.436;6.774;2023-10-13T10:48:44;10.45;;;6.82;;
20417;SDS011;10368;51.436;6.774;2023-10-13T10:51:12;8.98;;;6.88;;
20417;SDS011;10368;51.436;6.774;2023-10-13T10:53:49;14.50;;;7.82;;
20417;SDS011;10368;51.436;6.774;2023-10-13T10:56:18;16.42;;;7.40;;
20417;SDS011;10368;51.436;6.774;2023-10-13T10:58:46;12.70;;;7.50;;
20417;SDS011;10368;51.436;6.774;2023-10-13T11:01:15;15.15;;;6.65;;
20417;SDS011;10368;51.436;6.774;2023-10-13T11:03:58;12.40;;;6.45;;
20417;SDS011;10368;51.436;6.774;2023-10-13T11:06:26;11.70;;;7.13;;
20417;SDS011;10368;51.436;6.774;2023-10-13T11:09:03;11.10;;;7.22;;
20417;SDS011;10368;51.436;6.774;2023-10-13T11:11:47;12.38;;;7.18;;
20417;SDS011;10368;51.436;6.774;2023-10-13T11:14:19;9.90;;;6.53;;
20417;SDS011;10368;51.436;6.774;2023-10-13T11:16:49;11.13;;;7.78;;
20417;SDS011;10368;51.436;6.774;2023-10-13T11:19:17;12.88;;;7.63;;
20417;SDS011;10368;51.436;6.774;2023-10-13T11:21:52;14.18;;;7.68;;
20417;SDS011;10368;51.436;6.774;2023-10-13T11:24:23;8.43;;;6.32;;
20417;SDS011;10368;51.436;6.774;2023-10-13T11:26:50;11.52;;;7.20;;
20417;SDS011;10368;51.436;6.774;2023-10-13T11:29:19;11.38;;;8.07;;
20417;SDS011;10368;51.436;6.774;2023-10-13T11:31:57;13.60;;;7.00;;
20417;SDS011;10368;51.436;6.774;2023-10-13T11:34:25;12.82;;;5.90;;
20417;SDS011;10368;51.436;6.774;2023-10-13T11:37:06;10.05;;;5.97;;
20417;SDS011;10368;51.436;6.774;2023-10-13T11:39:52;9.82;;;6.55;;
20417;SDS011;10368;51.436;6.774;2023-10-13T11:42:19;13.07;;;6.03;;
20417;SDS011;10368;51.436;6.774;2023-10-13T11:44:46;9.50;;;6.53;;
20417;SDS011;10368;51.436;6.774;2023-10-13T11:47:27;16.02;;;7.28;;
20417;SDS011;10368;51.436;6.774;2023-10-13T11:50:13;12.68;;;6.43;;
20417;SDS011;10368;51.436;6.774;2023-10-13T11:52:56;20.15;;;6.45;;
20417;SDS011;10368;51.436;6.774;2023-10-13T11:55:23;10.63;;;6.30;;
20417;SDS011;10368;51.436;6.774;2023-10-13T11:57:51;15.88;;;7.03;;
20417;SDS011;10368;51.436;6.774;2023-10-13T12:00:18;14.50;;;6.22;;
20417;SDS011;10368;51.436;6.774;2023-10-13T12:03:04;15.57;;;6.25;;
20417;SDS011;10368;51.436;6.774;2023-10-13T12:05:49;12.68;;;7.03;;
20417;SDS011;10368;51.436;6.774;2023-10-13T12:08:32;11.82;;;6.18;;
20417;SDS011;10368;51.436;6.774;2023-10-13T12:11:04;15.05;;;6.35;;
20417;SDS011;10368;51.436;6.774;2023-10-13T12:13:51;15.60;;;7.07;;
20417;SDS011;10368;51.436;6.774;2023-10-13T12:16:18;15.52;;;6.78;;
20417;SDS011;10368;51.436;6.774;2023-10-13T12:18:45;29.25;;;8.10;;
20417;SDS011;10368;51.436;6.774;2023-10-13T12:21:20;18.48;;;6.93;;
20417;SDS011;10368;51.436;6.774;2023-10-13T12:23:47;11.93;;;6.35;;
20417;SDS011;10368;51.436;6.774;2023-10-13T12:26:17;11.13;;;5.82;;
20417;SDS011;10368;51.436;6.774;2023-10-13T12:28:47;16.67;;;6.53;;
20417;SDS011;10368;51.436;6.774;2023-10-13T12:31:20;25.65;;;8.25;;
20417;SDS011;10368;51.436;6.774;2023-10-13T12:33:53;25.08;;;7.30;;
20417;SDS011;10368;51.436;6.774;2023-10-13T12:36:24;17.55;;;7.32;;
20417;SDS011;10368;51.436;6.774;2023-10-13T12:38:57;17.08;;;7.70;;
20417;SDS011;10368;51.436;6.774;2023-10-13T12:41:33;22.50;;;8.75;;
20417;SDS011;10368;51.436;6.774;2023-10-13T12:44:19;19.20;;;7.85;;
20417;SDS011;10368;51.436;6.774;2023-10-13T12:47:04;15.85;;;7.50;;
20417;SDS011;10368;51.436;6.774;2023-10-13T12:49:50;15.88;;;6.93;;
20417;SDS011;10368;51.436;6.774;2023-10-13T12:52:24;15.73;;;7.40;;
20417;SDS011;10368;51.436;6.774;2023-10-13T12:54:52;13.30;;;7.55;;
20417;SDS011;10368;51.436;6.774;2023-10-13T12:57:23;13.70;;;6.68;;
20417;SDS011;10368;51.436;6.774;2023-10-13T12:59:54;17.23;;;8.30;;
20417;SDS011;10368;51.436;6.774;2023-10-13T13:02:21;19.00;;;7.32;;
20417;SDS011;10368;51.436;6.774;2023-10-13T13:04:52;22.90;;;8.68;;
20417;SDS011;10368;51.436;6.774;2023-10-13T13:07:23;13.20;;;7.22;;
20417;SDS011;10368;51.436;6.774;2023-10-13T13:09:56;21.85;;;7.45;;
20417;SDS011;10368;51.436;6.774;2023-10-13T13:12:26;19.20;;;7.70;;
20417;SDS011;10368;51.436;6.774;2023-10-13T13:14:54;21.70;;;6.55;;
20417;SDS011;10368;51.436;6.774;2023-10-13T13:17:21;17.00;;;6.63;;
20417;SDS011;10368;51.436;6.774;2023-10-13T13:19:49;24.70;;;8.18;;
20417;SDS011;10368;51.436;6.774;2023-10-13T13:22:16;14.57;;;6.75;;
20417;SDS011;10368;51.436;6.774;2023-10-13T13:24:44;22.20;;;8.10;;
20417;SDS011;10368;51.436;6.774;2023-10-13T13:27:12;27.00;;;9.77;;
20417;SDS011;10368;51.436;6.774;2023-10-13T13:29:48;21.60;;;8.95;;
20417;SDS011;10368;51.436;6.774;2023-10-13T13:32:15;17.85;;;8.10;;
20417;SDS011;10368;51.436;6.774;2023-10-13T13:34:50;14.25;;;6.90;;
20417;SDS011;10368;51.436;6.774;2023-10-13T13:37:30;17.83;;;8.27;;
20417;SDS011;10368;51.436;6.774;2023-10-13T13:39:58;19.83;;;7.95;;
20417;SDS011;10368;51.436;6.774;2023-10-13T13:42:40;25.83;;;9.48;;
20417;SDS011;10368;51.436;6.774;2023-10-13T13:45:12;23.20;;;8.43;;
20417;SDS011;10368;51.436;6.774;2023-10-13T13:47:48;24.27;;;8.90;;
20417;SDS011;10368;51.436;6.774;2023-10-13T13:50:20;21.98;;;8.75;;
20417;SDS011;10368;51.436;6.774;2023-10-13T13:52:53;23.92;;;9.10;;
20417;SDS011;10368;51.436;6.774;2023-10-13T13:55:23;31.00;;;9.50;;
20417;SDS011;10368;51.436;6.774;2023-10-13T13:57:51;32.38;;;9.70;;
20417;SDS011;10368;51.436;6.774;2023-10-13T14:00:18;18.70;;;8.35;;
20417;SDS011;10368;51.436;6.774;2023-10-13T14:03:04;19.17;;;7.70;;
20417;SDS011;10368;51.436;6.774;2023-10-13T14:05:42;14.40;;;7.00;;
20417;SDS011;10368;51.436;6.774;2023-10-13T14:08:09;16.83;;;6.97;;
20417;SDS011;10368;51.436;6.774;2023-10-13T14:10:38;20.33;;;7.50;;
20417;SDS011;10368;51.436;6.774;2023-10-13T14:13:23;21.63;;;7.03;;
20417;SDS011;10368;51.436;6.774;2023-10-13T14:16:10;17.15;;;5.97;;
20417;SDS011;10368;51.436;6.774;2023-10-13T14:18:46;17.02;;;5.80;;
20417;SDS011;10368;51.436;6.774;2023-10-13T14:21:14;15.25;;;5.72;;
20417;SDS011;10368;51.436;6.774;2023-10-13T14:23:51;11.77;;;5.82;;
20417;SDS011;10368;51.436;6.774;2023-10-13T14:26:21;22.15;;;7.47;;
20417;SDS011;10368;51.436;6.774;2023-10-13T14:28:51;22.08;;;8.77;;
20417;SDS011;10368;51.436;6.774;2023-10-13T14:31:28;21.00;;;8.07;;
20417;SDS011;10368;51.436;6.774;2023-10-13T14:33:56;16.83;;;8.18;;
20417;SDS011;10368;51.436;6.774;2023-10-13T14:36:23;23.85;;;8.05;;
20417;SDS011;10368;51.436;6.774;2023-10-13T14:38:55;17.38;;;8.52;;
20417;SDS011;10368;51.436;6.774;2023-10-13T14:41:22;15.55;;;7.15;;
20417;SDS011;10368;51.436;6.774;2023-10-13T14:43:49;25.58;;;7.82;;
20417;SDS011;10368;51.436;6.774;2023-10-13T14:46:17;18.33;;;7.30;;
20417;SDS011;10368;51.436;6.774;2023-10-13T14:48:52;17.60;;;8.60;;
20417;SDS011;10368;51.436;6.774;2023-10-13T14:51:19;25.38;;;7.35;;
20417;SDS011;10368;51.436;6.774;2023-10-13T14:53:47;19.23;;;7.75;;
20417;SDS011;10368;51.436;6.774;2023-10-13T14:56:17;24.27;;;8.32;;
20417;SDS011;10368;51.436;6.774;2023-10-13T14:58:44;9.52;;;5.63;;
20417;SDS011;10368;51.436;6.774;2023-10-13T15:01:15;23.00;;;6.45;;
20417;SDS011;10368;51.436;6.774;2023-10-13T15:03:43;19.13;;;6.57;;
20417;SDS011;10368;51.436;6.774;2023-10-13T15:06:14;21.88;;;6.57;;
20417;SDS011;10368;51.436;6.774;2023-10-13T15:08:44;21.98;;;7.13;;
20417;SDS011;10368;51.436;6.774;2023-10-13T15:11:12;19.50;;;6.70;;
20417;SDS011;10368;51.436;6.774;2023-10-13T15:13:42;21.63;;;6.95;;
20417;SDS011;10368;51.436;6.774;2023-10-13T15:16:20;30.98;;;9.35;;
20417;SDS011;10368;51.436;6.774;2023-10-13T15:18:49;17.38;;;6.95;;
20417;SDS011;10368;51.436;6.774;2023-10-13T15:21:19;9.13;;;6.40;;
20417;SDS011;10368;51.436;6.774;2023-10-13T15:23:53;10.07;;;5.82;;
20417;SDS011;10368;51.436;6.774;2023-10-13T15:26:25;15.60;;;6.80;;
20417;SDS011;10368;51.436;6.774;2023-10-13T15:28:52;15.98;;;6.80;;
20417;SDS011;10368;51.436;6.774;2023-10-13T15:31:19;14.05;;;6.75;;
20417;SDS011;10368;51.436;6.774;2023-10-13T15:33:53;12.95;;;7.05;;
20417;SDS011;10368;51.436;6.774;2023-10-13T15:36:22;12.07;;;6.13;;
20417;SDS011;10368;51.436;6.774;2023-10-13T15:38:55;13.05;;;6.43;;
20417;SDS011;10368;51.436;6.774;2023-10-13T15:41:22;11.57;;;5.45;;